Aviation Digital Data Service (ADDS)

Output produced by TAFs form (1009 UTC 18 January 2017)
found at http://aviationweather.gov/adds/tafs/
 
KEGE 180911Z 1809/1906 VRB03KT 6SM BR BKN025 OVC035 
     FM181730 VRB03KT P6SM SCT035 
     FM182000 VRB03KT P6SM SKC 
     FM190000 VRB03KT P6SM SCT100 AMD LTD TO CLD VIS AND WIND TIL 181300